Time;durP1;ratioP1;P1;durP2;ratioP2;P2;SDS_P1;SDS_P2;PMS_P1;PMS_P2;Temp;Humidity;BMP_temperature;BMP_pressure;BME280_temperature;BME280_humidity;BME280_pressure;Samples;Min_cycle;Max_cycle;Signal;HPM_P1;HPM_P2
2022/09/06 07:28:02;;;;;;;5.70;3.28;;;;;;;22.50;63.29;96757.56;2067326;28;20622;-61
2022/09/06 07:29:07;;;;;;;7.13;3.60;;;;;;;22.83;62.05;96750.09;2067131;28;20217;-62
2022/09/06 07:30:13;;;;;;;7.43;3.63;;;;;;;22.97;60.54;96764.78;2062997;28;20206;-63
2022/09/06 07:31:14;;;;;;;7.50;3.97;;;;;;;23.05;59.92;96759.56;2063440;28;20201;-63
2022/09/06 07:32:35;;;;;;;6.43;3.70;;;;;;;23.05;59.53;96766.72;2063054;28;20222;-63
2022/09/06 07:33:37;;;;;;;6.75;3.33;;;;;;;23.02;59.65;96754.53;2063939;28;20194;-63
2022/09/06 07:34:39;;;;;;;5.63;2.92;;;;;;;23.14;59.33;96757.88;2061972;28;20206;-63
2022/09/06 07:35:58;;;;;;;8.20;3.40;;;;;;;23.60;58.34;96764.19;2063020;28;20198;-63
2022/09/06 07:37:00;;;;;;;7.25;3.25;;;;;;;23.83;57.52;96758.44;2063138;28;20228;-63
2022/09/06 07:38:02;;;;;;;6.60;3.88;;;;;;;23.91;57.47;96760.38;2063551;28;20762;-62
2022/09/06 07:39:03;;;;;;;6.93;3.65;;;;;;;24.05;57.63;96756.38;2065108;28;20592;-63
2022/09/06 07:52:26;;;;;;;15.07;3.22;;;;;;;24.31;55.08;96740.47;2077969;28;21102;-67
2022/09/06 07:53:52;;;;;;;6.32;2.88;;;;;;;23.77;56.45;96730.56;2066330;28;20201;-68
2022/09/06 07:55:17;;;;;;;6.75;3.75;;;;;;;24.41;55.51;96743.91;2068308;28;20224;-68
2022/09/06 07:56:20;;;;;;;6.40;3.25;;;;;;;24.67;55.01;96736.97;2065305;28;20205;-67
2022/09/06 07:57:22;;;;;;;4.50;3.28;;;;;;;24.69;54.51;96727.00;2068813;28;20222;-68
2022/09/06 07:58:24;;;;;;;5.72;3.25;;;;;;;25.16;54.02;96739.16;2069561;28;20197;-67
2022/09/06 07:59:26;;;;;;;6.13;3.20;;;;;;;25.43;52.15;96741.69;2069891;28;20198;-68
2022/09/06 08:00:27;;;;;;;5.88;2.95;;;;;;;24.73;53.04;96736.34;2070070;28;20194;-67
2022/09/06 08:01:33;;;;;;;12.27;3.83;;;;;;;24.56;54.22;96740.72;2070132;28;20194;-67
2022/09/06 08:02:34;;;;;;;4.65;2.70;;;;;;;24.70;53.79;96732.16;2069432;28;20624;-67
2022/09/06 08:03:39;;;;;;;9.93;3.45;;;;;;;24.35;54.81;96730.34;2069239;28;20657;-67
2022/09/06 08:04:41;;;;;;;4.40;2.90;;;;;;;24.37;54.69;96741.72;2070348;28;20617;-67
2022/09/06 08:05:42;;;;;;;11.90;3.28;;;;;;;24.89;53.29;96696.41;2070242;28;20657;-67
2022/09/06 08:13:56;;;;;;;8.75;2.88;;;;;;;25.10;52.64;96745.94;2060917;28;20760;-67
2022/09/06 08:14:58;;;;;;;6.05;2.83;;;;;;;25.37;52.58;96744.13;2061243;28;20234;-67
2022/09/06 08:16:05;;;;;;;8.10;3.20;;;;;;;25.39;52.24;96742.16;2061980;28;20198;-67
2022/09/06 08:17:06;;;;;;;6.85;3.20;;;;;;;25.67;50.91;96742.75;2061330;28;20669;-67
2022/09/06 08:18:08;;;;;;;11.80;2.80;;;;;;;25.89;51.09;96746.69;2062381;28;20646;-67
2022/09/06 08:19:14;;;;;;;6.57;3.50;;;;;;;24.93;53.28;96743.16;2052767;28;20203;-66
2022/09/06 08:20:16;;;;;;;7.60;3.33;;;;;;;24.74;53.35;96735.38;2057581;28;20206;-64
2022/09/06 08:21:19;;;;;;;10.98;3.30;;;;;;;25.37;52.42;96731.63;2060273;28;20191;-65
2022/09/06 08:22:20;;;;;;;7.13;3.15;;;;;;;25.39;52.42;96734.13;2060670;28;20240;-64
2022/09/06 08:23:22;;;;;;;14.07;3.63;;;;;;;25.26;52.58;96745.22;2061586;28;20199;-64
2022/09/06 08:24:23;;;;;;;6.93;3.15;;;;;;;25.65;52.03;96743.91;2061847;28;20290;-64
2022/09/06 08:25:25;;;;;;;10.07;3.20;;;;;;;26.25;51.11;96742.97;2056587;28;20203;-64
2022/09/06 08:26:27;;;;;;;7.45;3.50;;;;;;;25.98;50.74;96744.88;2053048;28;20202;-64
2022/09/06 08:27:29;;;;;;;6.95;2.80;;;;;;;25.86;51.03;96744.31;2059670;28;20313;-64
2022/09/06 08:28:30;;;;;;;12.25;2.90;;;;;;;25.40;52.50;96746.50;2059630;28;20209;-64
2022/09/06 08:29:35;;;;;;;11.18;3.40;;;;;;;25.65;52.79;96744.78;2060721;28;20205;-64
2022/09/06 08:30:37;;;;;;;9.40;4.45;;;;;;;25.77;51.64;96742.63;2060381;28;20651;-63
2022/09/06 08:31:41;;;;;;;6.63;3.85;;;;;;;25.52;52.29;96742.56;2059049;28;20659;-63
2022/09/06 08:32:43;;;;;;;8.30;2.92;;;;;;;25.56;52.19;96743.91;2060046;28;20227;-63
2022/09/06 08:33:46;;;;;;;12.48;3.80;;;;;;;25.60;52.30;96744.41;2060522;28;20573;-63
2022/09/06 08:34:48;;;;;;;5.95;3.10;;;;;;;25.81;52.07;96745.81;2061365;28;20194;-63
2022/09/06 08:35:57;;;;;;;5.30;2.90;;;;;;;25.97;52.03;96747.72;2057118;28;20210;-63
2022/09/06 08:36:58;;;;;;;6.30;2.90;;;;;;;26.02;51.38;96738.19;2049962;28;20229;-63
2022/09/06 08:38:00;;;;;;;7.95;3.65;;;;;;;25.88;51.35;96730.81;2062913;28;20785;-63
2022/09/06 08:39:04;;;;;;;5.10;2.78;;;;;;;25.81;51.67;96740.47;2059519;28;20686;-63
2022/09/06 08:40:06;;;;;;;7.25;2.90;;;;;;;26.00;51.30;96742.88;2053483;28;20199;-63
2022/09/06 08:41:32;;;;;;;11.82;3.50;;;;;;;25.52;52.71;96731.00;2054481;28;20295;-63
2022/09/06 08:42:38;;;;;;;8.43;3.10;;;;;;;25.53;53.03;96749.56;2060298;28;20225;-63
2022/09/06 08:49:04;;;;;;;9.88;3.15;;;;;;;26.15;52.08;96734.25;2059540;28;20210;-64
2022/09/06 08:50:06;;;;;;;12.68;3.50;;;;;;;26.36;51.45;96731.94;2059839;28;20815;-64
2022/09/06 08:51:36;;;;;;;13.13;3.63;;;;;;;25.58;52.58;96738.38;2061018;28;20199;-63
2022/09/06 08:52:51;;;;;;;4.88;3.20;;;;;;;25.53;53.32;96735.34;2060710;28;20270;-63
2022/09/06 08:54:39;;;;;;;7.60;3.53;;;;;;;25.51;52.60;96727.50;2059504;28;20207;-63
2022/09/06 08:55:50;;;;;;;12.75;3.03;;;;;;;25.07;54.32;96739.09;2060378;28;20559;-64
2022/09/06 08:57:03;;;;;;;7.47;3.15;;;;;;;25.29;54.05;96730.72;2061145;28;20206;-63
2022/09/06 08:58:16;;;;;;;10.88;3.13;;;;;;;25.22;54.74;96735.84;2061160;28;20222;-63
2022/09/06 08:59:19;;;;;;;15.48;3.65;;;;;;;25.22;54.44;96728.66;2060284;28;20210;-63
2022/09/06 09:00:21;;;;;;;7.75;3.22;;;;;;;25.64;53.70;96716.38;2058508;28;20199;-63
2022/09/06 09:01:36;;;;;;;4.55;3.00;;;;;;;25.86;53.15;96730.13;2059849;28;20242;-63
2022/09/06 09:02:50;;;;;;;18.25;3.08;;;;;;;25.99;53.04;96733.19;2059416;28;20249;-62
2022/09/06 09:03:57;;;;;;;9.15;2.90;;;;;;;26.00;52.42;96734.00;2054587;28;20198;-61
2022/09/06 09:05:03;;;;;;;11.00;3.00;;;;;;;25.68;53.71;96728.41;2056167;28;20840;-61
2022/09/06 09:06:08;;;;;;;10.23;3.42;;;;;;;25.90;53.26;96726.97;2056308;28;20210;-61
2022/09/06 09:07:35;;;;;;;14.35;3.30;;;;;;;26.25;52.59;96732.25;2055010;28;20214;-61
2022/09/06 09:08:43;;;;;;;12.27;3.25;;;;;;;26.52;52.01;96732.94;2055534;28;20210;-61
2022/09/06 09:09:44;;;;;;;7.65;3.10;;;;;;;26.52;52.07;96739.13;2054277;28;20237;-60
2022/09/06 09:10:49;;;;;;;6.82;3.38;;;;;;;25.94;53.04;96738.19;2056568;28;20797;-61
2022/09/06 09:11:50;;;;;;;10.30;3.30;;;;;;;26.17;52.87;96738.44;2055567;28;20203;-61
2022/09/06 09:12:52;;;;;;;5.45;3.00;;;;;;;26.41;52.23;96739.47;2049967;28;20239;-61
2022/09/06 09:13:58;;;;;;;11.07;3.22;;;;;;;26.66;52.29;96742.16;2053008;28;20199;-61
2022/09/06 09:15:05;;;;;;;10.13;3.70;;;;;;;25.78;53.40;96735.47;2055447;28;20191;-62
2022/09/06 09:16:07;;;;;;;11.05;3.00;;;;;;;25.79;53.39;96734.44;2051298;28;20191;-62
2022/09/06 09:17:19;;;;;;;6.93;3.35;;;;;;;25.57;54.31;96740.25;2052680;28;20279;-62
2022/09/06 09:18:25;;;;;;;8.55;3.88;;;;;;;25.54;53.74;96726.34;2052210;28;20654;-61
2022/09/06 09:19:30;;;;;;;8.18;2.78;;;;;;;25.89;53.65;96741.34;2052785;28;20258;-61
2022/09/06 09:20:32;;;;;;;11.57;3.28;;;;;;;26.24;52.78;96736.78;2053537;28;20210;-61
2022/09/06 09:21:36;;;;;;;6.40;3.65;;;;;;;26.42;52.55;96730.44;2054788;28;20204;-60
2022/09/06 09:22:39;;;;;;;10.07;3.28;;;;;;;26.35;53.02;96738.28;2054722;28;20219;-61
2022/09/06 09:23:40;;;;;;;13.50;3.95;;;;;;;26.40;52.32;96737.81;2054691;28;20199;-61
2022/09/06 09:24:42;;;;;;;11.77;3.38;;;;;;;26.32;52.69;96732.44;2055752;28;20424;-61
2022/09/06 09:37:28;;;;;;;6.43;3.05;;;;;;;28.01;48.07;96744.19;2054716;28;20650;-61
2022/09/06 09:38:48;;;;;;;9.13;2.95;;;;;;;28.01;48.04;96746.84;2053870;28;20203;-61
2022/09/06 09:39:55;;;;;;;9.55;2.78;;;;;;;27.86;47.91;96744.94;2055834;28;20195;-61
2022/09/06 09:41:00;;;;;;;9.68;2.88;;;;;;;27.93;47.73;96741.56;2055688;28;20195;-61
2022/09/06 09:42:02;;;;;;;8.25;3.25;;;;;;;28.41;46.88;96739.59;2055730;28;20256;-61
2022/09/06 09:43:16;;;;;;;9.02;2.40;;;;;;;28.83;45.98;96743.66;2055566;28;20686;-61
2022/09/06 09:44:18;;;;;;;9.75;3.42;;;;;;;28.81;45.91;96729.59;2055418;28;20221;-61
2022/09/06 09:45:27;;;;;;;12.35;3.22;;;;;;;28.30;47.10;96742.69;2055879;28;20765;-61
2022/09/06 09:46:32;;;;;;;7.10;2.70;;;;;;;28.19;47.71;96746.66;2056102;28;20207;-61
2022/09/06 09:47:34;;;;;;;8.38;3.40;;;;;;;28.06;47.76;96739.19;2054677;28;20646;-61
2022/09/06 09:48:36;;;;;;;6.72;2.45;;;;;;;27.46;48.84;96737.91;2054072;28;20229;-61
2022/09/06 09:49:37;;;;;;;6.75;2.88;;;;;;;27.75;48.51;96737.28;2053765;28;20253;-61
2022/09/06 09:50:39;;;;;;;7.20;2.85;;;;;;;27.48;48.65;96742.06;2055701;28;20203;-61
2022/09/06 09:51:43;;;;;;;8.80;2.97;;;;;;;27.61;48.61;96738.84;2055337;28;20662;-61
2022/09/06 09:52:48;;;;;;;14.32;3.22;;;;;;;27.95;48.13;96735.00;2054519;28;20289;-61
2022/09/06 09:53:52;;;;;;;9.93;3.35;;;;;;;27.98;47.45;96742.69;2055679;28;20718;-60
2022/09/06 09:55:01;;;;;;;6.10;2.58;;;;;;;27.83;47.38;96737.25;2055495;28;20871;-61
2022/09/06 10:01:28;;;;;;;7.07;2.80;;;;;;;28.12;48.27;96740.31;2054553;28;20179;-60
2022/09/06 10:02:34;;;;;;;9.07;2.65;;;;;;;28.29;46.90;96739.19;2052286;28;20261;-61
2022/09/06 10:03:36;;;;;;;12.63;3.42;;;;;;;28.29;46.41;96732.97;2053476;28;20203;-61
2022/09/06 10:05:03;;;;;;;9.65;3.08;;;;;;;28.47;46.50;96736.19;2053564;28;20597;-61
2022/09/06 10:06:08;;;;;;;8.48;2.60;;;;;;;27.65;47.80;96728.59;2053491;28;20206;-60
2022/09/06 10:07:32;;;;;;;7.97;2.65;;;;;;;27.29;48.59;96732.56;2047808;28;20219;-60
2022/09/06 10:08:39;;;;;;;12.80;3.05;;;;;;;27.62;48.51;96737.84;2050783;28;20208;-63
2022/09/06 10:09:56;;;;;;;7.97;2.97;;;;;;;27.94;47.75;96732.50;2051238;28;20691;-61
2022/09/06 10:10:57;;;;;;;7.63;2.80;;;;;;;28.50;47.09;96730.47;2051363;28;20198;-61
2022/09/06 10:11:59;;;;;;;8.07;3.03;;;;;;;28.30;47.22;96730.13;2051635;28;20196;-61
2022/09/06 10:13:11;;;;;;;8.15;2.60;;;;;;;28.34;47.36;96725.22;2050955;28;20610;-62
2022/09/06 10:14:24;;;;;;;9.77;3.10;;;;;;;27.91;47.83;96730.16;2051359;28;20210;-62
2022/09/06 10:15:38;;;;;;;11.82;3.33;;;;;;;27.80;48.21;96726.03;2050469;28;20791;-61
2022/09/06 10:16:43;;;;;;;6.32;2.92;;;;;;;27.86;48.32;96726.16;2051443;28;20203;-61
2022/09/06 10:17:51;;;;;;;8.93;2.85;;;;;;;27.65;48.32;96729.44;2051585;28;20227;-61
2022/09/06 10:18:52;;;;;;;13.10;3.38;;;;;;;27.75;48.34;96725.72;2051706;28;20199;-61
2022/09/06 10:19:54;;;;;;;10.35;2.72;;;;;;;27.64;48.84;96716.19;2050740;28;20204;-61
2022/09/06 10:21:11;;;;;;;8.60;3.25;;;;;;;27.70;48.86;96720.88;2050885;28;20651;-61
2022/09/06 10:22:25;;;;;;;13.98;3.30;;;;;;;27.58;48.72;96724.94;2050677;28;21758;-61
2022/09/06 10:23:41;;;;;;;8.55;3.05;;;;;;;27.51;48.62;96728.31;2050547;28;20399;-61
2022/09/06 10:25:13;;;;;;;13.38;2.63;;;;;;;27.87;48.49;96721.59;2050428;28;20218;-61
2022/09/06 10:39:54;;;;;;;10.50;3.45;;;;;;;28.23;49.56;96717.59;2083379;28;20552;-62
2022/09/06 10:41:10;;;;;;;9.65;3.30;;;;;;;28.32;49.13;96709.28;2083242;28;20204;-62
2022/09/06 10:42:24;;;;;;;4.25;2.60;;;;;;;28.49;49.14;96707.34;2077474;28;20230;-62
2022/09/06 10:43:37;;;;;;;6.60;2.72;;;;;;;28.42;48.89;96701.00;2074077;28;20284;-62
2022/09/06 10:44:41;;;;;;;9.23;2.70;;;;;;;28.13;48.84;96704.41;2066427;28;20202;-62
2022/09/06 10:45:57;;;;;;;6.13;2.88;;;;;;;28.00;48.63;96696.91;2067030;28;20553;-62
2022/09/06 10:47:15;;;;;;;3.95;1.85;;;;;;;27.88;48.58;96691.09;2075046;28;20208;-62
2022/09/06 10:55:09;;;;;;;7.07;1.90;;;;;;;29.07;45.16;96690.69;2067257;28;20198;-60
2022/09/06 10:56:19;;;;;;;10.70;2.40;;;;;;;29.14;45.31;96693.47;2067705;28;20695;-60
2022/09/06 10:57:47;;;;;;;6.90;1.73;;;;;;;28.92;45.33;96690.66;2069432;28;20220;-62
2022/09/06 10:59:20;;;;;;;3.45;1.60;;;;;;;29.27;45.00;96684.78;2061883;28;20214;-62
2022/09/06 11:00:46;;;;;;;10.43;2.60;;;;;;;29.34;44.60;96684.91;2063322;28;20277;-62
2022/09/06 11:02:11;;;;;;;6.70;2.22;;;;;;;29.97;44.00;96690.66;2061984;28;20252;-63
2022/09/06 11:03:39;;;;;;;5.70;2.30;;;;;;;30.49;43.03;96690.56;2062047;28;20218;-63
2022/09/06 11:05:06;;;;;;;9.38;2.40;;;;;;;30.92;42.13;96687.81;2067873;28;20434;-62
2022/09/06 11:18:08;;;;;;;7.30;2.10;;;;;;;32.59;39.06;96686.88;2064981;28;20444;-63
2022/09/06 11:19:31;;;;;;;8.40;2.07;;;;;;;31.87;39.71;96685.47;2063849;28;20526;-63
2022/09/06 11:20:43;;;;;;;7.33;1.83;;;;;;;30.96;41.27;96689.09;2065279;28;20424;-63
2022/09/06 11:22:06;;;;;;;6.27;2.63;;;;;;;30.16;43.68;96693.75;2065483;28;20490;-63
2022/09/06 11:23:10;;;;;;;7.90;2.50;;;;;;;30.40;43.32;96696.06;2066479;28;20451;-63
2022/09/06 11:24:21;;;;;;;4.70;2.40;;;;;;;30.33;43.55;96689.78;2061383;28;20977;-63
2022/09/06 11:25:33;;;;;;;15.07;3.13;;;;;;;30.00;44.44;96682.19;2058172;28;20432;-63
2022/09/06 11:26:54;;;;;;;9.20;2.53;;;;;;;29.80;44.64;96692.69;2057756;28;20424;-62
2022/09/06 11:27:59;;;;;;;6.43;2.40;;;;;;;29.31;46.64;96686.09;2060342;28;20479;-62
2022/09/06 11:42:06;;;;;;;9.52;2.40;;;;;;;28.24;48.61;96684.34;2134047;27;20432;-62
2022/09/06 11:43:11;;;;;;;11.60;3.10;;;;;;;27.81;49.22;96682.09;2075718;28;1221781;-63
2022/09/06 11:44:51;;;;;;;14.95;3.10;;;;;;;27.49;50.11;96686.59;2113611;28;20190;-63
2022/09/06 11:59:46;;;;;;;11.52;2.80;;;;;;;26.95;52.24;96666.66;2085650;28;20564;-61
2022/09/06 12:01:12;;;;;;;9.68;3.00;;;;;;;26.95;52.22;96665.81;2084552;28;20204;-64
2022/09/06 12:02:33;;;;;;;10.13;3.03;;;;;;;26.69;53.15;96674.88;2078437;28;20228;-66
2022/09/06 12:21:50;;;;;;;10.35;3.55;;;;;;;26.38;55.71;96687.09;2083822;28;20572;-62
2022/09/06 12:22:53;;;;;;;10.90;3.33;;;;;;;26.38;55.66;96692.44;2049456;28;20231;-62
2022/09/06 12:49:46;;;;;;;9.73;2.37;;;;;;;25.52;54.58;96678.41;2066370;27;1224046;-59
2022/09/06 12:50:59;;;;;;;6.78;2.15;;;;;;;24.71;56.23;96675.13;2103063;28;20572;-58
2022/09/06 12:52:18;;;;;;;8.13;2.40;;;;;;;24.49;57.46;96668.41;2098687;28;20190;-60
2022/09/06 12:53:23;;;;;;;10.48;2.47;;;;;;;24.62;57.67;96660.84;2078365;28;20205;-59
2022/09/06 13:10:45;;;;;;;9.50;2.57;;;;;;;23.58;59.41;96666.69;2060300;27;1228679;-61
2022/09/06 13:11:51;;;;;;;9.40;2.65;;;;;;;23.57;58.28;96667.72;2101498;28;20202;-61
2022/09/06 13:43:27;;;;;;;10.50;2.65;;;;;;;20.53;75.44;96641.00;2083589;28;20577;-63
2022/09/06 14:23:52;;;;;;;17.73;3.80;;;;;;;19.55;88.28;96664.06;2085845;28;20583;-72
2022/09/06 14:50:14;;;;;;;18.27;3.10;;;;;;;19.54;78.39;96673.81;2107277;27;20545;-70
2022/09/06 14:51:22;;;;;;;15.63;3.80;;;;;;;19.19;83.11;96647.53;2103737;28;20557;-72
2022/09/06 15:01:12;;;;;;;13.93;3.87;;;;;;;19.30;89.98;96621.03;2062452;27;1312704;-73
2022/09/06 15:02:14;;;;;;;23.67;5.30;;;;;;;19.52;89.69;96609.53;2092848;28;20688;-72
2022/09/06 15:03:15;;;;;;;14.18;3.70;;;;;;;19.86;89.49;96605.97;2078329;28;20672;-72
2022/09/06 15:04:17;;;;;;;13.80;4.47;;;;;;;20.11;88.96;96595.94;2077268;28;20204;-72
2022/09/06 15:05:19;;;;;;;12.80;4.43;;;;;;;20.38;88.04;96590.97;2078136;28;20560;-72
2022/09/06 15:06:26;;;;;;;8.10;3.45;;;;;;;20.79;82.08;96603.47;2075790;28;20664;-73
2022/09/06 15:07:27;;;;;;;10.82;2.78;;;;;;;20.41;79.02;96589.84;2073488;28;20272;-73
2022/09/06 15:08:29;;;;;;;11.73;3.40;;;;;;;20.78;81.97;96597.31;2079061;28;20204;-74
2022/09/06 15:09:30;;;;;;;6.00;2.65;;;;;;;21.12;84.01;96597.00;2078802;28;20204;-74
2022/09/06 15:10:32;;;;;;;15.93;2.70;;;;;;;21.29;85.97;96578.75;2078867;28;20204;-73
2022/09/06 15:11:39;;;;;;;13.65;3.15;;;;;;;21.52;86.81;96592.59;2078633;28;20205;-73
2022/09/06 15:12:40;;;;;;;14.68;4.10;;;;;;;21.75;86.94;96581.75;2078402;28;20244;-73
2022/09/06 15:13:42;;;;;;;14.90;3.47;;;;;;;21.97;86.18;96592.09;2077336;28;20200;-72
2022/09/06 15:14:47;;;;;;;13.68;2.92;;;;;;;22.06;84.18;96582.44;2075007;28;20201;-70
2022/09/06 15:15:48;;;;;;;17.50;3.67;;;;;;;22.13;82.63;96577.38;2074631;28;20755;-72
2022/09/06 15:16:52;;;;;;;15.25;3.47;;;;;;;22.12;81.21;96578.38;2074257;28;20584;-72
2022/09/06 15:17:57;;;;;;;13.27;2.97;;;;;;;22.00;82.40;96573.22;2074459;28;20351;-71
2022/09/06 15:18:59;;;;;;;12.30;3.40;;;;;;;21.90;84.12;96559.06;2078797;28;20200;-70
2022/09/06 15:20:00;;;;;;;7.25;2.50;;;;;;;22.00;83.18;96570.56;2078764;28;20224;-72
2022/09/06 15:21:14;;;;;;;10.07;2.65;;;;;;;22.24;82.83;96563.09;2078153;28;20209;-72
2022/09/06 15:22:16;;;;;;;6.63;2.47;;;;;;;22.81;82.85;96563.91;2080425;28;20213;-71
2022/09/06 15:23:17;;;;;;;9.77;2.70;;;;;;;23.20;83.23;96568.22;2086929;28;20561;-71
2022/09/06 15:24:27;;;;;;;16.52;6.97;;;;;;;23.31;79.10;96573.34;2086891;28;20204;-68
2022/09/06 15:25:29;;;;;;;28.67;16.90;;;;;;;23.86;74.36;96568.88;2085924;28;20608;-72
2022/09/06 15:26:34;;;;;;;10.55;5.63;;;;;;;24.27;72.15;96568.38;2086975;28;20203;-70
2022/09/06 15:27:35;;;;;;;21.67;5.65;;;;;;;24.53;69.97;96556.84;2080869;28;20239;-71
2022/09/06 15:28:39;;;;;;;15.55;2.40;;;;;;;24.87;68.93;96572.91;2078551;28;20201;-70
2022/09/06 15:29:41;;;;;;;20.95;2.80;;;;;;;24.34;71.14;96563.25;2078001;28;20193;-70
2022/09/06 15:30:42;;;;;;;20.10;2.95;;;;;;;23.93;71.26;96567.31;2078280;28;20381;-71
2022/09/06 15:31:49;;;;;;;11.63;2.70;;;;;;;23.69;73.43;96567.06;2078970;28;20201;-69
2022/09/06 15:32:51;;;;;;;26.58;3.30;;;;;;;23.43;73.39;96568.63;2078204;28;20228;-71
2022/09/06 15:33:53;;;;;;;9.68;2.63;;;;;;;22.99;73.73;96555.13;2078523;28;20190;-70
2022/09/06 15:34:55;;;;;;;8.95;2.63;;;;;;;22.91;74.35;96571.84;2078519;28;20200;-71
2022/09/06 15:36:07;;;;;;;10.73;3.22;;;;;;;22.66;75.06;96560.91;2078659;28;20205;-70
2022/09/06 15:37:09;;;;;;;9.63;3.30;;;;;;;22.48;76.74;96557.31;2077720;28;20212;-72
2022/09/06 15:38:11;;;;;;;18.35;2.63;;;;;;;22.35;76.87;96553.13;2078647;28;20198;-72
2022/09/06 15:39:13;;;;;;;13.15;2.72;;;;;;;22.10;77.02;96548.44;2078629;28;20197;-71
2022/09/06 15:40:14;;;;;;;10.65;2.20;;;;;;;22.05;78.36;96545.38;2078536;28;20193;-71
2022/09/06 15:41:18;;;;;;;8.43;3.67;;;;;;;21.97;77.26;96546.09;2078266;28;20215;-69
2022/09/06 15:53:47;;;;;;;10.33;3.50;;;;;;;21.62;79.77;96540.38;2063873;27;1300263;-68
2022/09/06 15:56:11;;;;;;;13.82;3.65;;;;;;;21.73;79.15;96544.69;2107031;28;20202;-68
2022/09/06 16:05:07;;;;;;;20.57;3.20;;;;;;;21.45;81.72;96541.88;2071477;27;1295541;-69
2022/09/06 16:06:15;;;;;;;10.57;3.97;;;;;;;21.08;83.58;96536.34;2109195;28;20203;-70
2022/09/06 16:07:24;;;;;;;8.50;3.75;;;;;;;20.81;85.95;96533.38;2101021;28;20273;-67
2022/09/06 16:17:17;;;;;;;4.22;2.20;;;;;;;21.25;87.66;96543.66;2106471;27;20379;-65
2022/09/06 16:18:19;;;;;;;13.02;3.28;;;;;;;21.11;85.94;96538.75;2099805;28;20196;-68
2022/09/06 16:19:20;;;;;;;6.63;2.58;;;;;;;21.01;86.39;96541.38;2094739;28;20200;-65
2022/09/06 16:27:37;;;;;;;6.90;2.88;;;;;;;21.91;83.85;96531.53;2094614;27;20554;-70
2022/09/06 16:28:39;;;;;;;14.93;3.10;;;;;;;21.99;83.80;96536.13;2090009;28;20203;-70
2022/09/06 16:29:40;;;;;;;6.03;2.83;;;;;;;21.59;84.32;96534.50;2090722;28;20199;-71
2022/09/06 16:30:45;;;;;;;6.00;3.10;;;;;;;21.64;84.07;96537.59;2087122;28;20204;-70
2022/09/06 16:31:47;;;;;;;9.45;2.83;;;;;;;21.88;84.26;96542.47;2090618;28;20226;-70
2022/09/06 16:57:01;;;;;;;10.53;2.40;;;;;;;21.47;84.23;96513.38;2060115;27;1345700;-69
2022/09/06 16:58:03;;;;;;;5.25;2.55;;;;;;;21.16;86.24;96515.28;2087171;28;20436;-69
2022/09/06 17:14:26;;;;;;;11.32;3.00;;;;;;;19.94;90.65;96507.28;2082914;28;20576;-68
